Time;durP1;ratioP1;P1;durP2;ratioP2;P2;SDS_P1;SDS_P2;PMS_P1;PMS_P2;Temp;Humidity;BMP_temperature;BMP_pressure;BME280_temperature;BME280_humidity;BME280_pressure;Samples;Min_cycle;Max_cycle;Signal;HPM_P1;HPM_P2
2022/09/27 00:02:03;;;;;;;25.07;22.77;;;12.10;99.90;;;;;;5034995;28;20826;-75
2022/09/27 00:04:31;;;;;;;26.17;23.77;;;12.10;99.90;;;;;;5034531;28;20470;-75
2022/09/27 00:07:02;;;;;;;24.03;21.87;;;12.10;99.90;;;;;;5034859;28;20439;-75
2022/09/27 00:09:30;;;;;;;24.90;22.70;;;12.10;99.90;;;;;;5033547;28;20543;-76
2022/09/27 00:11:58;;;;;;;26.17;23.47;;;12.10;99.90;;;;;;5034575;28;20485;-75
2022/09/27 00:14:26;;;;;;;24.83;22.57;;;12.10;99.90;;;;;;5033265;28;20599;-75
2022/09/27 00:16:54;;;;;;;24.13;21.77;;;12.10;99.90;;;;;;5034863;28;20427;-76
2022/09/27 00:19:24;;;;;;;22.83;20.67;;;12.10;99.90;;;;;;5033556;28;20469;-76
2022/09/27 00:21:52;;;;;;;24.17;21.90;;;12.10;99.90;;;;;;5034770;28;20431;-76
2022/09/27 00:24:23;;;;;;;23.07;20.97;;;12.10;99.90;;;;;;5034327;28;20458;-76
2022/09/27 00:26:51;;;;;;;21.47;19.27;;;12.10;99.90;;;;;;5034376;28;20423;-76
2022/09/27 00:29:19;;;;;;;23.20;20.80;;;12.10;99.90;;;;;;5032955;28;20502;-76
2022/09/27 00:31:48;;;;;;;22.93;20.80;;;12.10;99.90;;;;;;5032989;28;20473;-75
2022/09/27 00:34:20;;;;;;;22.33;20.17;;;12.10;99.90;;;;;;5032950;28;20886;-75
2022/09/27 00:36:49;;;;;;;21.83;19.63;;;12.10;99.90;;;;;;5034042;28;20455;-76
2022/09/27 00:39:17;;;;;;;22.07;19.80;;;12.10;99.90;;;;;;5032854;28;20947;-75
2022/09/27 00:41:47;;;;;;;20.97;18.87;;;12.10;99.90;;;;;;5033548;28;20435;-75
2022/09/27 00:44:57;;;;;;;21.80;19.50;;;12.10;99.90;;;;;;5033452;28;20474;-75
2022/09/27 00:47:30;;;;;;;22.30;19.93;;;12.10;99.90;;;;;;5013841;28;20445;-75
2022/09/27 00:50:02;;;;;;;22.40;20.17;;;12.10;99.90;;;;;;5032659;28;20435;-76
2022/09/27 00:52:36;;;;;;;21.30;18.90;;;12.10;99.90;;;;;;5032559;28;20983;-76
2022/09/27 00:55:11;;;;;;;20.60;18.50;;;12.10;99.90;;;;;;5032592;28;20542;-76
2022/09/27 00:57:42;;;;;;;18.40;16.50;;;12.00;99.90;;;;;;5032499;28;20445;-76
2022/09/27 01:00:12;;;;;;;19.30;17.30;;;12.00;99.90;;;;;;5034021;28;20839;-76
2022/09/27 01:02:45;;;;;;;18.60;16.67;;;12.00;99.90;;;;;;5034136;28;20663;-77
2022/09/27 01:05:17;;;;;;;17.20;15.40;;;12.00;99.90;;;;;;5034706;28;20435;-77
2022/09/27 01:07:45;;;;;;;17.07;15.10;;;12.00;99.90;;;;;;5032799;28;20531;-76
2022/09/27 01:10:14;;;;;;;16.77;15.00;;;12.00;99.90;;;;;;5032251;28;20521;-75
2022/09/27 01:12:57;;;;;;;16.60;14.93;;;11.90;99.90;;;;;;5033808;28;20474;-77
2022/09/27 01:15:34;;;;;;;16.70;15.10;;;11.90;99.90;;;;;;5033954;28;20518;-77
2022/09/27 01:18:27;;;;;;;16.80;15.10;;;11.90;99.90;;;;;;5032678;28;20437;-76
2022/09/27 01:21:28;;;;;;;16.50;14.80;;;11.90;99.90;;;;;;5033890;28;20890;-75
2022/09/27 01:24:12;;;;;;;17.27;14.80;;;11.90;99.90;;;;;;5032304;28;20482;-75
2022/09/27 01:27:07;;;;;;;20.73;15.77;;;11.90;99.90;;;;;;5032171;28;20443;-75
2022/09/27 01:29:52;;;;;;;16.93;14.73;;;11.90;99.90;;;;;;5032144;28;20509;-75
2022/09/27 01:32:31;;;;;;;15.13;13.40;;;11.90;99.90;;;;;;5031972;28;20470;-76
2022/09/27 01:35:06;;;;;;;14.60;13.10;;;11.80;99.90;;;;;;5032089;28;20441;-75
2022/09/27 01:37:39;;;;;;;18.63;13.40;;;11.90;99.90;;;;;;5032292;28;20445;-75
2022/09/27 01:40:17;;;;;;;15.03;13.17;;;11.80;99.90;;;;;;5032031;28;20969;-75
2022/09/27 01:43:00;;;;;;;13.50;11.93;;;11.80;99.90;;;;;;5033179;28;20821;-77
2022/09/27 01:45:37;;;;;;;12.63;11.00;;;11.80;99.90;;;;;;5032350;28;20434;-76
2022/09/27 01:48:23;;;;;;;12.50;11.20;;;11.80;99.90;;;;;;5032368;28;20455;-76
2022/09/27 01:50:59;;;;;;;12.30;10.77;;;11.80;99.90;;;;;;5031939;28;20474;-77
2022/09/27 01:53:33;;;;;;;13.03;9.93;;;11.80;99.90;;;;;;5032074;28;20459;-77
2022/09/27 01:56:27;;;;;;;10.97;9.13;;;11.80;99.90;;;;;;5036615;28;20502;-77
2022/09/27 01:59:08;;;;;;;11.23;9.07;;;11.70;99.90;;;;;;5036074;28;20451;-76
2022/09/27 02:01:43;;;;;;;14.60;9.40;;;11.70;99.90;;;;;;5035806;28;20861;-77
2022/09/27 02:04:17;;;;;;;10.60;8.87;;;11.70;99.90;;;;;;5035887;28;20459;-76
2022/09/27 02:07:11;;;;;;;10.53;7.37;;;11.70;99.90;;;;;;5035918;28;20447;-76
2022/09/27 02:09:44;;;;;;;9.13;7.03;;;11.70;99.90;;;;;;5035576;28;20952;-76
2022/09/27 02:12:25;;;;;;;10.10;6.90;;;11.70;99.90;;;;;;5035422;28;20546;-77
2022/09/27 02:15:00;;;;;;;8.00;7.20;;;11.60;99.90;;;;;;5037070;28;20469;-77
2022/09/27 02:17:41;;;;;;;9.70;6.57;;;11.60;99.90;;;;;;5035499;28;20481;-76
2022/09/27 02:20:18;;;;;;;7.30;5.53;;;11.60;99.90;;;;;;5038129;28;20450;-76
2022/09/27 02:23:00;;;;;;;7.10;5.13;;;11.60;99.90;;;;;;5036638;28;20834;-76
2022/09/27 02:25:34;;;;;;;6.40;4.80;;;11.60;99.90;;;;;;5035321;28;20433;-76
2022/09/27 02:28:12;;;;;;;6.80;4.53;;;11.60;99.90;;;;;;5035427;28;20452;-77
2022/09/27 02:30:42;;;;;;;6.70;4.80;;;11.60;99.90;;;;;;5035164;28;20450;-77
2022/09/27 02:33:23;;;;;;;8.50;4.77;;;11.50;99.90;;;;;;5035572;28;20987;-76
2022/09/27 02:35:52;;;;;;;6.63;4.60;;;11.50;99.90;;;;;;5035222;28;20450;-77
2022/09/27 02:38:21;;;;;;;4.80;3.90;;;11.50;99.90;;;;;;5035056;28;20597;-76
2022/09/27 02:40:50;;;;;;;5.40;3.40;;;11.50;99.90;;;;;;5035021;28;20968;-76
2022/09/27 02:43:20;;;;;;;5.23;3.60;;;11.50;99.90;;;;;;5034965;28;20532;-77
2022/09/27 02:46:05;;;;;;;4.50;3.03;;;11.50;99.90;;;;;;5035183;28;20455;-77
2022/09/27 02:48:47;;;;;;;8.57;3.77;;;11.50;99.90;;;;;;5034885;28;20497;-77
2022/09/27 02:51:32;;;;;;;6.03;3.00;;;11.40;99.90;;;;;;5036002;28;21005;-76
2022/09/27 02:54:13;;;;;;;4.57;2.93;;;11.40;99.90;;;;;;5034728;28;20473;-77
2022/09/27 02:57:26;;;;;;;4.50;2.43;;;11.40;99.90;;;;;;5035886;28;20952;-77
2022/09/27 03:00:05;;;;;;;4.60;2.73;;;11.40;99.90;;;;;;5036057;28;20419;-76
2022/09/27 03:02:51;;;;;;;5.90;2.60;;;11.40;99.90;;;;;;5034648;28;20467;-76
2022/09/27 03:05:43;;;;;;;3.47;1.80;;;11.40;99.90;;;;;;5034121;28;20447;-76
2022/09/27 03:08:13;;;;;;;4.17;2.50;;;11.30;99.90;;;;;;5035102;28;20971;-76
2022/09/27 03:10:42;;;;;;;6.50;2.23;;;11.30;99.90;;;;;;5034480;28;20431;-76
2022/09/27 03:13:11;;;;;;;4.00;2.40;;;11.30;99.90;;;;;;5034343;28;21023;-76
2022/09/27 03:15:39;;;;;;;5.33;2.67;;;11.30;99.90;;;;;;5034655;28;20798;-76
2022/09/27 03:18:07;;;;;;;4.50;2.70;;;11.30;99.90;;;;;;5035621;28;20435;-76
2022/09/27 03:20:54;;;;;;;6.80;2.90;;;11.30;99.90;;;;;;5035817;28;20577;-76
2022/09/27 03:23:26;;;;;;;5.77;3.20;;;11.30;99.90;;;;;;5034229;28;20554;-76
2022/09/27 03:25:55;;;;;;;5.13;3.50;;;11.20;99.90;;;;;;5034782;28;20439;-76
2022/09/27 03:28:24;;;;;;;4.87;3.70;;;11.20;99.90;;;;;;5034149;28;20455;-76
2022/09/27 03:30:53;;;;;;;6.67;3.90;;;11.20;99.90;;;;;;5033915;28;20466;-76
2022/09/27 03:33:40;;;;;;;11.00;4.60;;;11.20;99.90;;;;;;5035759;28;21065;-76
2022/09/27 03:36:11;;;;;;;6.10;4.80;;;11.20;99.90;;;;;;5033997;28;20498;-75
2022/09/27 03:38:41;;;;;;;8.20;5.90;;;11.20;99.90;;;;;;5033978;28;20893;-76
2022/09/27 03:41:15;;;;;;;8.77;6.87;;;11.20;99.90;;;;;;5034286;28;20454;-76
2022/09/27 03:43:44;;;;;;;8.40;7.07;;;11.20;99.90;;;;;;5034854;28;21044;-76
2022/09/27 03:46:12;;;;;;;10.23;7.80;;;11.20;99.90;;;;;;5033738;28;20439;-76
2022/09/27 03:48:41;;;;;;;9.83;7.30;;;11.20;99.90;;;;;;5033773;28;20483;-75
2022/09/27 03:51:11;;;;;;;10.77;8.03;;;11.20;99.90;;;;;;5034952;28;21131;-75
2022/09/27 03:53:41;;;;;;;9.53;7.43;;;11.20;99.90;;;;;;5033520;28;20536;-76
2022/09/27 03:56:10;;;;;;;11.00;8.00;;;11.20;99.90;;;;;;5033629;28;20443;-76
2022/09/27 03:58:39;;;;;;;9.30;7.40;;;11.20;99.90;;;;;;5033605;28;20479;-75
2022/09/27 04:01:07;;;;;;;7.97;6.80;;;11.20;99.90;;;;;;5033549;28;20455;-76
2022/09/27 04:03:37;;;;;;;8.80;7.87;;;11.20;99.90;;;;;;5033680;28;20475;-76
2022/09/27 04:06:28;;;;;;;10.80;8.40;;;11.20;99.90;;;;;;5033704;28;20455;-76
2022/09/27 04:08:57;;;;;;;9.80;8.17;;;11.20;99.90;;;;;;5033341;28;20454;-75
2022/09/27 04:11:37;;;;;;;8.93;7.13;;;11.20;99.90;;;;;;5034062;28;20473;-75
2022/09/27 04:14:05;;;;;;;10.40;7.60;;;11.20;99.90;;;;;;5033175;28;20529;-76
2022/09/27 04:16:41;;;;;;;9.30;7.13;;;11.20;99.90;;;;;;5032676;28;20454;-76
2022/09/27 04:19:38;;;;;;;9.13;7.80;;;11.20;99.90;;;;;;4980965;28;20884;-76
2022/09/27 04:22:10;;;;;;;10.77;7.30;;;11.20;99.90;;;;;;5033492;28;20455;-75
2022/09/27 04:24:39;;;;;;;9.83;7.30;;;11.20;99.90;;;;;;5033905;28;20454;-75
2022/09/27 04:27:23;;;;;;;7.53;6.73;;;11.10;99.90;;;;;;5033344;28;20541;-75
2022/09/27 04:29:52;;;;;;;8.53;6.10;;;11.20;99.90;;;;;;5033137;28;20493;-76
2022/09/27 04:32:41;;;;;;;11.20;5.93;;;11.20;99.90;;;;;;5034073;28;20515;-75
2022/09/27 04:38:15;;;;;;;8.93;6.20;;;11.10;99.90;;;;;;5032922;28;20461;-75
2022/09/27 04:40:47;;;;;;;7.83;6.23;;;11.10;99.90;;;;;;5032768;28;21050;-75
2022/09/27 04:43:16;;;;;;;9.33;6.00;;;11.10;99.90;;;;;;5032973;28;20495;-75
2022/09/27 04:45:45;;;;;;;7.37;5.70;;;11.10;99.90;;;;;;5032719;28;20522;-75
2022/09/27 04:48:13;;;;;;;7.10;5.40;;;11.10;99.90;;;;;;5032613;28;20534;-75
2022/09/27 04:50:41;;;;;;;9.47;4.90;;;11.10;99.90;;;;;;5032632;28;20795;-75
2022/09/27 04:53:13;;;;;;;7.87;5.33;;;11.10;99.90;;;;;;5032385;28;20479;-75
2022/09/27 04:55:48;;;;;;;6.23;5.63;;;11.00;99.90;;;;;;5032618;28;20443;-75
2022/09/27 04:58:17;;;;;;;8.57;5.80;;;11.10;99.90;;;;;;5032702;28;20466;-75
2022/09/27 05:00:47;;;;;;;8.13;6.40;;;11.00;99.90;;;;;;5032427;28;20849;-75
2022/09/27 05:03:35;;;;;;;7.43;5.90;;;11.00;99.90;;;;;;5025013;28;20466;-75
2022/09/27 05:06:11;;;;;;;5.50;4.90;;;11.00;99.90;;;;;;5032419;28;20959;-76
2022/09/27 05:08:39;;;;;;;5.33;4.83;;;11.00;99.90;;;;;;5032266;28;20498;-75
2022/09/27 05:11:26;;;;;;;6.20;5.30;;;11.00;99.90;;;;;;5032322;28;20529;-75
2022/09/27 05:14:13;;;;;;;7.43;5.47;;;10.90;99.90;;;;;;5033856;28;20482;-76
2022/09/27 05:17:06;;;;;;;6.03;5.47;;;10.90;99.90;;;;;;5005755;28;20442;-77
2022/09/27 05:20:00;;;;;;;8.27;5.77;;;10.90;99.90;;;;;;5032592;28;20935;-75
2022/09/27 05:22:42;;;;;;;8.03;6.23;;;10.90;99.90;;;;;;5033006;28;20462;-77
2022/09/27 05:25:11;;;;;;;9.33;6.10;;;10.90;99.90;;;;;;5032076;28;20486;-76
2022/09/27 05:27:41;;;;;;;8.43;6.97;;;10.90;99.90;;;;;;5031961;28;20473;-77
2022/09/27 05:30:11;;;;;;;10.60;7.00;;;10.90;99.90;;;;;;5032239;28;20473;-77
2022/09/27 05:32:55;;;;;;;9.47;6.90;;;10.90;99.90;;;;;;5032037;28;20539;-78
2022/09/27 05:35:26;;;;;;;9.27;6.87;;;10.90;99.90;;;;;;5033706;28;20782;-77
2022/09/27 05:37:57;;;;;;;7.83;7.03;;;10.90;99.90;;;;;;5032367;28;20451;-77
2022/09/27 05:40:29;;;;;;;8.30;7.10;;;10.90;99.90;;;;;;5032123;28;20509;-77
2022/09/27 05:43:10;;;;;;;8.47;7.17;;;10.90;99.90;;;;;;5032310;28;20467;-77
2022/09/27 05:45:38;;;;;;;9.37;7.07;;;10.90;99.90;;;;;;5034188;28;20806;-78
2022/09/27 05:48:07;;;;;;;8.27;6.40;;;10.90;99.90;;;;;;5034407;28;20447;-76
2022/09/27 05:50:45;;;;;;;8.20;7.27;;;10.90;99.90;;;;;;5033124;28;20451;-76
2022/09/27 05:53:13;;;;;;;7.83;6.50;;;10.90;99.90;;;;;;5032012;28;20845;-76
2022/09/27 05:55:42;;;;;;;9.17;6.83;;;10.90;99.90;;;;;;5032098;28;20450;-77
2022/09/27 05:58:15;;;;;;;8.17;5.90;;;10.90;99.90;;;;;;5032744;28;20473;-76
2022/09/27 06:00:55;;;;;;;7.40;6.23;;;10.90;99.90;;;;;;5031903;28;20505;-76
2022/09/27 06:03:53;;;;;;;7.70;6.90;;;10.90;99.90;;;;;;5014521;28;21001;-76
2022/09/27 06:06:45;;;;;;;8.17;6.30;;;10.90;99.90;;;;;;5029989;28;20442;-76
2022/09/27 06:09:15;;;;;;;7.93;7.13;;;10.90;99.90;;;;;;5031781;28;20446;-76
2022/09/27 06:11:45;;;;;;;6.80;5.23;;;10.90;99.90;;;;;;5031776;28;20439;-76
2022/09/27 06:14:17;;;;;;;7.47;5.90;;;10.90;99.90;;;;;;5031635;28;20466;-76
2022/09/27 06:16:55;;;;;;;6.43;5.50;;;10.90;99.90;;;;;;5031872;28;20485;-76
2022/09/27 06:19:27;;;;;;;9.10;6.10;;;10.90;99.90;;;;;;5031732;28;20443;-76
2022/09/27 06:21:56;;;;;;;6.17;5.20;;;10.90;99.90;;;;;;5032433;28;20447;-76
2022/09/27 06:24:29;;;;;;;7.07;5.40;;;10.90;99.90;;;;;;5031612;28;20463;-76
2022/09/27 06:27:02;;;;;;;6.03;5.23;;;10.90;99.90;;;;;;5032152;28;20505;-76
2022/09/27 06:29:44;;;;;;;10.80;4.73;;;10.90;99.90;;;;;;5031488;28;20530;-76
2022/09/27 06:32:22;;;;;;;5.80;4.50;;;10.90;99.90;;;;;;5031601;28;20512;-76
2022/09/27 06:34:58;;;;;;;6.97;4.30;;;10.90;99.90;;;;;;5031636;28;21018;-76
2022/09/27 06:37:27;;;;;;;8.87;4.60;;;10.90;99.90;;;;;;5031652;28;20446;-76
2022/09/27 06:39:56;;;;;;;6.17;3.80;;;10.90;99.90;;;;;;5031834;28;20505;-76
2022/09/27 06:42:44;;;;;;;5.50;4.40;;;11.00;99.90;;;;;;5036536;28;20470;-76
2022/09/27 06:45:22;;;;;;;7.60;3.60;;;11.00;99.90;;;;;;5035621;28;20454;-76
2022/09/27 06:48:11;;;;;;;5.03;3.53;;;11.00;99.90;;;;;;5036975;28;20473;-76
2022/09/27 06:50:47;;;;;;;6.50;3.10;;;11.00;99.90;;;;;;5035431;28;20446;-76
2022/09/27 06:53:17;;;;;;;4.97;2.90;;;11.00;99.90;;;;;;5035106;28;21046;-76
2022/09/27 06:55:45;;;;;;;7.73;3.20;;;11.00;99.90;;;;;;5035001;28;20551;-76
2022/09/27 07:01:19;;;;;;;4.60;2.63;;;11.00;99.90;;;;;;5036353;28;20446;-76
2022/09/27 07:04:06;;;;;;;6.00;3.47;;;11.00;99.90;;;;;;5036463;28;20825;-77
2022/09/27 07:07:10;;;;;;;5.63;3.20;;;11.00;99.90;;;;;;5014066;28;20439;-77
2022/09/27 07:09:42;;;;;;;4.50;2.73;;;11.00;99.90;;;;;;5028247;28;20454;-76
2022/09/27 07:12:12;;;;;;;4.67;2.90;;;11.00;99.90;;;;;;5034495;28;20435;-76
2022/09/27 07:14:42;;;;;;;3.80;3.03;;;11.10;99.90;;;;;;5034572;28;20470;-76
2022/09/27 07:17:18;;;;;;;4.97;2.87;;;11.10;99.90;;;;;;5035039;28;20533;-76
2022/09/27 07:19:48;;;;;;;4.07;2.27;;;11.10;99.90;;;;;;5035136;28;20497;-76
2022/09/27 07:22:17;;;;;;;6.87;2.90;;;11.10;99.90;;;;;;5035542;28;20493;-76
2022/09/27 07:24:51;;;;;;;8.00;2.80;;;11.10;99.90;;;;;;5035407;28;20432;-77
2022/09/27 07:27:21;;;;;;;6.57;3.20;;;11.20;99.90;;;;;;5036154;28;20535;-77
2022/09/27 07:29:49;;;;;;;6.83;2.63;;;11.20;99.90;;;;;;5036005;28;20956;-77
2022/09/27 07:32:18;;;;;;;5.93;2.90;;;11.20;99.90;;;;;;5035257;28;20819;-78
2022/09/27 07:34:47;;;;;;;6.33;2.60;;;11.20;99.90;;;;;;5034598;28;20459;-77
2022/09/27 07:37:16;;;;;;;4.90;2.90;;;11.20;99.90;;;;;;5034808;28;20504;-77
2022/09/27 07:39:45;;;;;;;5.23;2.50;;;11.30;99.90;;;;;;5034700;28;20443;-77
2022/09/27 07:42:13;;;;;;;4.00;2.73;;;11.30;99.90;;;;;;5034357;28;20994;-77
2022/09/27 07:44:45;;;;;;;4.57;2.80;;;11.30;99.90;;;;;;5034074;28;20439;-77
2022/09/27 07:47:29;;;;;;;3.73;2.53;;;11.30;99.90;;;;;;5034482;28;20824;-76
2022/09/27 07:50:16;;;;;;;7.63;2.40;;;11.30;99.90;;;;;;5034656;28;20455;-77
2022/09/27 07:52:52;;;;;;;4.43;2.70;;;11.30;99.90;;;;;;5034550;28;20464;-77
2022/09/27 07:55:34;;;;;;;4.57;2.87;;;11.30;99.90;;;;;;5035315;28;20463;-77
2022/09/27 07:58:10;;;;;;;3.70;2.50;;;11.40;99.90;;;;;;5035197;28;20493;-77
2022/09/27 08:00:39;;;;;;;5.50;2.50;;;11.50;99.90;;;;;;5034285;28;20447;-77
2022/09/27 08:03:14;;;;;;;4.30;2.50;;;11.50;99.90;;;;;;5033955;28;20528;-77
2022/09/27 08:05:42;;;;;;;5.50;2.63;;;11.50;99.90;;;;;;5033856;28;20445;-77
2022/09/27 08:08:11;;;;;;;4.37;1.93;;;11.50;99.90;;;;;;5034143;28;20443;-77
2022/09/27 08:10:42;;;;;;;3.43;1.77;;;11.60;99.90;;;;;;5033879;28;20447;-77
2022/09/27 08:13:12;;;;;;;4.00;2.40;;;11.60;99.90;;;;;;5033294;28;20478;-77
2022/09/27 08:15:41;;;;;;;3.30;1.70;;;11.60;99.90;;;;;;5034288;28;20846;-77
2022/09/27 08:18:09;;;;;;;5.07;2.30;;;11.60;99.90;;;;;;5034671;28;20447;-77
2022/09/27 08:21:05;;;;;;;5.53;2.40;;;11.70;99.90;;;;;;5034045;28;20439;-77
2022/09/27 08:23:51;;;;;;;4.33;2.50;;;11.70;99.90;;;;;;5033902;28;20479;-77
2022/09/27 08:26:28;;;;;;;4.53;1.60;;;11.70;99.90;;;;;;5033951;28;20442;-77
2022/09/27 08:29:11;;;;;;;2.83;1.70;;;11.80;99.90;;;;;;5034391;28;20948;-76
2022/09/27 08:31:43;;;;;;;3.60;1.83;;;11.80;99.90;;;;;;5034344;28;20455;-77
2022/09/27 08:34:12;;;;;;;3.37;1.70;;;11.80;99.90;;;;;;5034215;28;20836;-77
2022/09/27 08:36:43;;;;;;;2.60;1.60;;;11.80;99.90;;;;;;5033563;28;20457;-77
2022/09/27 08:39:11;;;;;;;3.00;1.60;;;11.90;99.90;;;;;;5033888;28;20443;-75
2022/09/27 08:41:51;;;;;;;5.23;1.70;;;11.90;99.90;;;;;;5033859;28;20438;-76
2022/09/27 08:44:27;;;;;;;6.00;1.40;;;11.90;99.90;;;;;;5032997;28;20836;-77
2022/09/27 08:47:06;;;;;;;3.30;1.63;;;11.90;99.90;;;;;;5033820;28;20501;-76
2022/09/27 08:49:39;;;;;;;5.33;2.20;;;11.90;99.90;;;;;;5032756;28;20442;-76
2022/09/27 08:52:15;;;;;;;6.10;1.87;;;11.90;99.90;;;;;;5032777;28;20435;-76
2022/09/27 08:54:44;;;;;;;4.10;1.17;;;11.90;99.90;;;;;;5033094;28;20829;-75
2022/09/27 08:57:15;;;;;;;3.60;1.40;;;11.90;99.90;;;;;;5033470;28;20998;-76
2022/09/27 08:59:48;;;;;;;3.43;1.60;;;11.90;99.90;;;;;;5033295;28;20469;-78
2022/09/27 09:02:20;;;;;;;4.23;1.40;;;11.90;99.90;;;;;;5033296;28;20473;-76
2022/09/27 09:04:56;;;;;;;3.80;1.37;;;11.90;99.90;;;;;;5032235;28;20489;-77
2022/09/27 09:07:48;;;;;;;3.93;1.50;;;11.90;99.90;;;;;;5032434;28;20489;-76
2022/09/27 09:13:32;;;;;;;5.20;1.50;;;11.90;99.90;;;;;;5032275;28;20479;-76
2022/09/27 09:16:14;;;;;;;6.20;2.53;;;11.90;99.90;;;;;;5034047;28;20463;-76
2022/09/27 09:19:04;;;;;;;5.70;1.70;;;11.90;99.90;;;;;;5032705;28;20497;-77
2022/09/27 09:21:47;;;;;;;5.23;1.77;;;11.90;99.90;;;;;;5032438;28;20451;-76
2022/09/27 09:24:29;;;;;;;6.17;1.70;;;11.90;99.90;;;;;;5032253;28;20466;-77
2022/09/27 09:27:03;;;;;;;3.17;1.17;;;11.80;99.90;;;;;;5032391;28;20449;-77
2022/09/27 09:29:57;;;;;;;6.07;1.77;;;11.80;99.90;;;;;;5032263;28;20446;-77
2022/09/27 09:32:38;;;;;;;4.40;1.87;;;11.80;99.90;;;;;;5032050;28;20474;-77
2022/09/27 09:35:13;;;;;;;6.13;1.80;;;11.80;99.90;;;;;;5033864;28;20454;-78
2022/09/27 09:37:48;;;;;;;6.40;2.17;;;11.70;99.90;;;;;;5032087;28;20939;-77
2022/09/27 09:40:22;;;;;;;5.03;2.13;;;11.70;99.90;;;;;;5032040;28;20463;-77
2022/09/27 09:42:57;;;;;;;4.40;2.00;;;11.70;99.90;;;;;;5031952;28;20556;-77
2022/09/27 09:45:28;;;;;;;5.10;2.07;;;11.70;99.90;;;;;;5032252;28;20441;-77
2022/09/27 09:48:03;;;;;;;4.90;2.20;;;11.70;99.90;;;;;;5031994;28;20470;-77
2022/09/27 09:50:37;;;;;;;5.10;2.30;;;11.60;99.90;;;;;;5033508;28;20420;-76
2022/09/27 09:53:14;;;;;;;3.20;1.93;;;11.60;99.90;;;;;;5031864;28;20462;-77
2022/09/27 09:55:51;;;;;;;5.37;2.47;;;11.60;99.90;;;;;;5031921;28;20546;-77
2022/09/27 09:58:24;;;;;;;5.10;2.60;;;11.60;99.90;;;;;;5033747;28;20423;-77
2022/09/27 10:01:09;;;;;;;7.63;2.30;;;11.60;99.90;;;;;;5032210;28;20447;-76
2022/09/27 10:03:37;;;;;;;6.90;1.97;;;11.60;99.90;;;;;;5031921;28;20836;-77
2022/09/27 10:06:06;;;;;;;6.40;2.27;;;11.60;99.90;;;;;;5031915;28;20453;-76
2022/09/27 10:08:34;;;;;;;3.60;2.17;;;11.60;99.90;;;;;;5031781;28;20451;-77
2022/09/27 10:11:38;;;;;;;5.40;2.00;;;11.60;99.90;;;;;;5031362;28;20447;-77
2022/09/27 10:14:21;;;;;;;4.27;2.53;;;11.60;99.90;;;;;;5032186;28;20838;-77
2022/09/27 10:16:57;;;;;;;3.90;2.10;;;11.60;99.90;;;;;;5035461;28;20971;-77
2022/09/27 10:19:29;;;;;;;2.93;1.80;;;11.60;99.90;;;;;;5035836;28;20441;-77
2022/09/27 10:22:03;;;;;;;5.37;2.07;;;11.60;99.90;;;;;;5035805;28;20811;-77
2022/09/27 10:24:56;;;;;;;2.67;1.90;;;11.60;99.90;;;;;;5035660;28;20484;-77
2022/09/27 10:27:46;;;;;;;3.80;2.33;;;11.60;99.90;;;;;;5037224;28;20485;-77
2022/09/27 10:30:26;;;;;;;3.73;2.50;;;11.60;99.90;;;;;;5035555;28;20462;-77
2022/09/27 10:32:58;;;;;;;3.97;2.13;;;11.70;99.90;;;;;;5035119;28;20477;-77
2022/09/27 10:35:43;;;;;;;3.93;2.10;;;11.70;99.90;;;;;;5035173;28;20517;-77
2022/09/27 10:38:25;;;;;;;6.00;2.03;;;11.70;99.90;;;;;;5035212;28;20443;-77
2022/09/27 10:41:21;;;;;;;4.20;2.27;;;11.70;99.90;;;;;;5036140;28;20443;-77
2022/09/27 10:43:52;;;;;;;4.87;2.10;;;11.70;99.90;;;;;;5035322;28;20474;-76
2022/09/27 10:46:34;;;;;;;4.93;2.33;;;11.60;99.90;;;;;;5035472;28;20851;-77
2022/09/27 10:49:20;;;;;;;3.70;2.33;;;11.70;99.90;;;;;;5034966;28;20466;-77
2022/09/27 10:51:53;;;;;;;4.13;2.30;;;11.60;99.90;;;;;;5035402;28;20453;-76
2022/09/27 10:54:26;;;;;;;5.57;2.00;;;11.70;99.90;;;;;;5034847;28;20880;-77
2022/09/27 10:56:57;;;;;;;4.20;2.30;;;11.60;99.90;;;;;;5034807;28;20466;-76
2022/09/27 10:59:29;;;;;;;9.67;2.83;;;11.70;99.90;;;;;;5036495;28;20449;-77
2022/09/27 11:01:58;;;;;;;6.17;2.90;;;11.70;99.90;;;;;;5035641;28;20443;-77
2022/09/27 11:04:35;;;;;;;5.37;2.70;;;11.60;99.90;;;;;;5036962;28;20467;-77
2022/09/27 11:07:18;;;;;;;4.50;2.30;;;11.70;99.90;;;;;;5035717;28;20440;-77
2022/09/27 11:10:01;;;;;;;5.00;3.10;;;11.70;99.90;;;;;;5035644;28;20451;-77
2022/09/27 11:12:34;;;;;;;4.07;2.37;;;11.70;99.90;;;;;;5034644;28;20465;-77
2022/09/27 11:15:07;;;;;;;7.93;2.87;;;11.70;99.90;;;;;;5034397;28;20466;-77
2022/09/27 11:17:50;;;;;;;4.57;2.70;;;11.80;99.90;;;;;;5035113;28;20474;-77
2022/09/27 11:20:24;;;;;;;4.60;2.43;;;11.90;99.90;;;;;;5035990;28;20422;-77
2022/09/27 11:23:29;;;;;;;5.40;2.80;;;11.90;99.90;;;;;;5034708;28;20485;-77
2022/09/27 11:26:17;;;;;;;7.20;2.87;;;11.90;99.90;;;;;;5034754;28;20454;-77
2022/09/27 11:28:56;;;;;;;5.87;3.93;;;12.00;99.90;;;;;;5034320;28;20435;-77
2022/09/27 11:31:54;;;;;;;3.53;2.53;;;12.00;99.90;;;;;;5035112;28;20462;-77
2022/09/27 11:34:46;;;;;;;4.30;2.70;;;12.00;99.90;;;;;;5034110;28;20578;-77
2022/09/27 11:37:27;;;;;;;5.27;3.20;;;12.10;99.90;;;;;;5033992;28;20589;-76
2022/09/27 11:40:13;;;;;;;6.93;2.93;;;12.10;99.90;;;;;;5034448;28;20439;-77
2022/09/27 11:43:01;;;;;;;4.10;2.97;;;12.20;99.90;;;;;;5033975;28;20467;-77
2022/09/27 11:45:44;;;;;;;4.47;2.63;;;12.20;99.90;;;;;;5033968;28;20446;-77
2022/09/27 11:49:09;;;;;;;4.47;3.03;;;12.30;99.90;;;;;;5034176;28;20459;-77
2022/09/27 11:51:53;;;;;;;6.43;3.10;;;12.30;99.90;;;;;;5032050;28;20455;-77
2022/09/27 11:54:44;;;;;;;3.50;2.90;;;12.30;99.90;;;;;;5033781;28;20502;-76
2022/09/27 11:57:22;;;;;;;4.80;2.70;;;12.40;99.90;;;;;;5031807;28;20481;-78
2022/09/27 12:00:06;;;;;;;4.77;2.50;;;12.40;99.90;;;;;;5035162;28;20427;-77
2022/09/27 12:03:30;;;;;;;5.30;2.80;;;12.50;99.90;;;;;;5035085;28;20455;-77
2022/09/27 12:06:17;;;;;;;5.33;2.80;;;12.50;99.90;;;;;;4957922;28;20438;-77
2022/09/27 12:09:02;;;;;;;4.90;2.67;;;12.60;99.90;;;;;;5032327;28;20517;-77
2022/09/27 12:11:38;;;;;;;3.70;2.63;;;12.60;99.90;;;;;;5033915;28;20438;-76
2022/09/27 12:14:16;;;;;;;4.33;2.40;;;12.60;99.90;;;;;;5033573;28;20521;-77
2022/09/27 12:16:47;;;;;;;3.60;2.40;;;12.70;99.90;;;;;;5034095;28;20486;-75
2022/09/27 12:19:22;;;;;;;3.83;2.13;;;12.70;99.90;;;;;;5033820;28;21021;-78
2022/09/27 12:22:12;;;;;;;3.47;1.80;;;12.80;99.90;;;;;;5033255;28;20475;-76
2022/09/27 12:24:44;;;;;;;4.10;2.03;;;12.80;99.90;;;;;;5033427;28;20470;-76
2022/09/27 12:27:37;;;;;;;3.73;1.70;;;12.80;99.90;;;;;;5033583;28;20844;-76
2022/09/27 12:30:12;;;;;;;5.00;2.00;;;12.90;99.90;;;;;;5033766;28;20457;-76
2022/09/27 12:32:56;;;;;;;3.33;1.90;;;12.90;99.90;;;;;;5034499;28;20485;-76
2022/09/27 12:35:29;;;;;;;5.20;1.90;;;12.90;99.90;;;;;;5035041;28;20443;-79
2022/09/27 12:38:03;;;;;;;4.47;2.33;;;12.90;99.90;;;;;;5035276;28;20902;-78
2022/09/27 12:40:34;;;;;;;4.70;2.10;;;12.90;99.90;;;;;;5036279;28;20840;-78
2022/09/27 12:43:12;;;;;;;3.50;2.00;;;13.00;99.90;;;;;;5036382;28;20555;-79
2022/09/27 12:46:08;;;;;;;4.73;1.93;;;13.00;99.90;;;;;;5037701;28;20499;-78
2022/09/27 12:48:45;;;;;;;5.90;3.10;;;13.00;99.90;;;;;;5036193;28;20447;-79
2022/09/27 12:51:16;;;;;;;4.83;1.80;;;13.00;99.90;;;;;;5035959;28;20446;-79
2022/09/27 12:54:02;;;;;;;3.50;1.80;;;13.00;99.90;;;;;;5035491;28;20516;-78
2022/09/27 12:56:43;;;;;;;2.50;1.70;;;13.10;99.90;;;;;;5034167;28;20462;-79
2022/09/27 12:59:25;;;;;;;3.60;1.80;;;13.10;99.90;;;;;;5034357;28;20534;-78
2022/09/27 13:02:20;;;;;;;3.87;1.60;;;13.10;99.90;;;;;;5034036;28;20920;-78
2022/09/27 13:05:17;;;;;;;4.40;1.77;;;13.20;99.90;;;;;;5034910;28;20443;-78
2022/09/27 13:07:55;;;;;;;4.47;2.00;;;13.20;99.90;;;;;;5034281;28;20442;-79
2022/09/27 13:10:44;;;;;;;3.27;1.33;;;13.20;99.90;;;;;;5034123;28;20447;-78
2022/09/27 13:13:25;;;;;;;5.10;1.57;;;13.20;99.90;;;;;;5034060;28;20541;-78
2022/09/27 13:15:58;;;;;;;5.23;1.80;;;13.20;99.90;;;;;;5034696;28;20439;-78
2022/09/27 13:18:48;;;;;;;4.40;1.93;;;13.10;99.90;;;;;;5034400;28;20584;-79
2022/09/27 13:21:50;;;;;;;2.20;1.20;;;13.10;99.90;;;;;;5033684;28;20443;-78
2022/09/27 13:24:47;;;;;;;2.87;1.00;;;13.10;99.90;;;;;;5035488;28;20544;-78
2022/09/27 13:27:43;;;;;;;3.20;1.00;;;13.10;99.90;;;;;;5034572;28;20522;-79
2022/09/27 13:30:48;;;;;;;2.43;1.07;;;13.10;99.90;;;;;;5033954;28;20584;-79
2022/09/27 13:33:44;;;;;;;2.43;0.90;;;13.00;99.90;;;;;;5033985;28;20471;-79
2022/09/27 13:36:29;;;;;;;3.33;1.00;;;13.00;99.90;;;;;;5033863;28;20577;-78
2022/09/27 13:39:22;;;;;;;3.50;1.30;;;12.90;99.90;;;;;;5034242;28;20463;-79
2022/09/27 13:42:31;;;;;;;2.50;1.00;;;12.90;99.90;;;;;;5035261;28;20451;-78
2022/09/27 13:45:19;;;;;;;2.00;0.93;;;12.90;99.90;;;;;;5034239;28;20818;-79
2022/09/27 13:47:50;;;;;;;2.00;0.73;;;12.80;99.90;;;;;;5034095;28;20510;-78